sensor_id;sensor_type;location;lat;lon;timestamp;P1;durP1;ratioP1;P2;durP2;ratioP2
49828;SDS011;35723;51.194;5.112;2023-11-19T00:00:31;7.60;;;3.92;;
49828;SDS011;35723;51.194;5.112;2023-11-19T00:02:56;10.43;;;3.90;;
49828;SDS011;35723;51.194;5.112;2023-11-19T00:05:22;12.10;;;3.90;;
49828;SDS011;35723;51.194;5.112;2023-11-19T00:07:48;7.82;;;3.72;;
49828;SDS011;35723;51.194;5.112;2023-11-19T00:10:14;9.05;;;3.90;;
49828;SDS011;35723;51.194;5.112;2023-11-19T00:12:44;11.52;;;4.00;;
49828;SDS011;35723;51.194;5.112;2023-11-19T00:15:11;9.73;;;3.97;;
49828;SDS011;35723;51.194;5.112;2023-11-19T00:17:38;10.73;;;4.10;;
49828;SDS011;35723;51.194;5.112;2023-11-19T00:20:14;11.23;;;3.97;;
49828;SDS011;35723;51.194;5.112;2023-11-19T00:22:43;12.27;;;3.83;;
49828;SDS011;35723;51.194;5.112;2023-11-19T00:25:13;20.63;;;4.30;;
49828;SDS011;35723;51.194;5.112;2023-11-19T00:27:39;15.10;;;3.72;;
49828;SDS011;35723;51.194;5.112;2023-11-19T00:30:05;14.32;;;3.90;;
49828;SDS011;35723;51.194;5.112;2023-11-19T00:32:34;14.13;;;3.75;;
49828;SDS011;35723;51.194;5.112;2023-11-19T00:35:01;13.75;;;3.60;;
49828;SDS011;35723;51.194;5.112;2023-11-19T00:37:28;17.30;;;3.67;;
49828;SDS011;35723;51.194;5.112;2023-11-19T00:39:53;14.25;;;3.30;;
49828;SDS011;35723;51.194;5.112;2023-11-19T00:42:21;17.63;;;3.35;;
49828;SDS011;35723;51.194;5.112;2023-11-19T00:44:48;17.83;;;3.60;;
49828;SDS011;35723;51.194;5.112;2023-11-19T00:47:13;20.90;;;3.85;;
49828;SDS011;35723;51.194;5.112;2023-11-19T00:49:39;17.52;;;3.50;;
49828;SDS011;35723;51.194;5.112;2023-11-19T00:52:05;22.25;;;4.00;;
49828;SDS011;35723;51.194;5.112;2023-11-19T00:54:31;20.25;;;3.70;;
49828;SDS011;35723;51.194;5.112;2023-11-19T00:56:57;21.95;;;3.85;;
49828;SDS011;35723;51.194;5.112;2023-11-19T00:59:23;17.42;;;4.28;;
49828;SDS011;35723;51.194;5.112;2023-11-19T01:01:48;14.10;;;3.63;;
49828;SDS011;35723;51.194;5.112;2023-11-19T01:04:16;18.50;;;4.13;;
49828;SDS011;35723;51.194;5.112;2023-11-19T01:06:41;18.80;;;3.42;;
49828;SDS011;35723;51.194;5.112;2023-11-19T01:09:07;19.05;;;3.55;;
49828;SDS011;35723;51.194;5.112;2023-11-19T01:11:34;20.33;;;3.47;;
49828;SDS011;35723;51.194;5.112;2023-11-19T01:14:00;15.30;;;3.75;;
49828;SDS011;35723;51.194;5.112;2023-11-19T01:16:25;19.58;;;4.03;;
49828;SDS011;35723;51.194;5.112;2023-11-19T01:18:51;18.38;;;3.63;;
49828;SDS011;35723;51.194;5.112;2023-11-19T01:21:17;20.20;;;3.63;;
49828;SDS011;35723;51.194;5.112;2023-11-19T01:23:43;20.80;;;4.03;;
49828;SDS011;35723;51.194;5.112;2023-11-19T01:26:09;18.20;;;3.75;;
49828;SDS011;35723;51.194;5.112;2023-11-19T01:28:36;21.63;;;4.07;;
49828;SDS011;35723;51.194;5.112;2023-11-19T01:31:02;21.45;;;3.78;;
49828;SDS011;35723;51.194;5.112;2023-11-19T01:33:28;23.10;;;4.13;;
49828;SDS011;35723;51.194;5.112;2023-11-19T01:35:54;19.23;;;4.00;;
49828;SDS011;35723;51.194;5.112;2023-11-19T01:38:23;21.98;;;3.90;;
49828;SDS011;35723;51.194;5.112;2023-11-19T01:40:49;20.75;;;3.60;;
49828;SDS011;35723;51.194;5.112;2023-11-19T01:46:00;24.00;;;3.97;;
49828;SDS011;35723;51.194;5.112;2023-11-19T01:48:28;20.77;;;3.92;;
49828;SDS011;35723;51.194;5.112;2023-11-19T01:50:55;25.70;;;4.15;;
49828;SDS011;35723;51.194;5.112;2023-11-19T01:53:22;25.33;;;4.05;;
49828;SDS011;35723;51.194;5.112;2023-11-19T01:55:48;23.05;;;3.88;;
49828;SDS011;35723;51.194;5.112;2023-11-19T01:58:14;29.77;;;4.20;;
49828;SDS011;35723;51.194;5.112;2023-11-19T02:00:40;29.50;;;4.63;;
49828;SDS011;35723;51.194;5.112;2023-11-19T02:03:06;24.13;;;3.83;;
49828;SDS011;35723;51.194;5.112;2023-11-19T02:05:35;25.02;;;4.50;;
49828;SDS011;35723;51.194;5.112;2023-11-19T02:08:03;29.73;;;4.15;;
49828;SDS011;35723;51.194;5.112;2023-11-19T02:10:29;24.88;;;4.32;;
49828;SDS011;35723;51.194;5.112;2023-11-19T02:12:56;26.42;;;4.95;;
49828;SDS011;35723;51.194;5.112;2023-11-19T02:15:23;28.23;;;4.22;;
49828;SDS011;35723;51.194;5.112;2023-11-19T02:17:49;27.52;;;4.20;;
49828;SDS011;35723;51.194;5.112;2023-11-19T02:20:16;31.25;;;4.43;;
49828;SDS011;35723;51.194;5.112;2023-11-19T02:22:44;26.70;;;3.95;;
49828;SDS011;35723;51.194;5.112;2023-11-19T02:25:29;29.13;;;4.97;;
49828;SDS011;35723;51.194;5.112;2023-11-19T02:28:01;31.30;;;4.40;;
49828;SDS011;35723;51.194;5.112;2023-11-19T02:30:28;26.88;;;4.60;;
49828;SDS011;35723;51.194;5.112;2023-11-19T02:33:03;31.02;;;4.88;;
49828;SDS011;35723;51.194;5.112;2023-11-19T02:35:31;29.05;;;4.60;;
49828;SDS011;35723;51.194;5.112;2023-11-19T02:37:58;30.42;;;5.03;;
49828;SDS011;35723;51.194;5.112;2023-11-19T02:40:25;31.10;;;4.47;;
49828;SDS011;35723;51.194;5.112;2023-11-19T02:42:51;28.50;;;4.28;;
49828;SDS011;35723;51.194;5.112;2023-11-19T02:45:21;28.10;;;4.20;;
49828;SDS011;35723;51.194;5.112;2023-11-19T02:47:50;31.88;;;4.22;;
49828;SDS011;35723;51.194;5.112;2023-11-19T02:50:17;33.53;;;4.85;;
49828;SDS011;35723;51.194;5.112;2023-11-19T02:52:53;35.00;;;4.90;;
49828;SDS011;35723;51.194;5.112;2023-11-19T02:55:21;33.05;;;4.88;;
49828;SDS011;35723;51.194;5.112;2023-11-19T02:57:48;30.17;;;4.68;;
49828;SDS011;35723;51.194;5.112;2023-11-19T03:00:15;35.05;;;5.25;;
49828;SDS011;35723;51.194;5.112;2023-11-19T03:02:48;38.08;;;4.95;;
49828;SDS011;35723;51.194;5.112;2023-11-19T03:05:23;41.35;;;5.78;;
49828;SDS011;35723;51.194;5.112;2023-11-19T03:07:49;32.22;;;4.95;;
49828;SDS011;35723;51.194;5.112;2023-11-19T03:10:15;33.63;;;5.18;;
49828;SDS011;35723;51.194;5.112;2023-11-19T03:12:41;37.55;;;5.22;;
49828;SDS011;35723;51.194;5.112;2023-11-19T03:15:10;36.67;;;4.88;;
49828;SDS011;35723;51.194;5.112;2023-11-19T03:17:38;31.25;;;5.40;;
49828;SDS011;35723;51.194;5.112;2023-11-19T03:20:05;32.83;;;4.93;;
49828;SDS011;35723;51.194;5.112;2023-11-19T03:22:34;34.58;;;5.15;;
49828;SDS011;35723;51.194;5.112;2023-11-19T03:25:01;34.40;;;4.60;;
49828;SDS011;35723;51.194;5.112;2023-11-19T03:27:27;32.92;;;4.45;;
49828;SDS011;35723;51.194;5.112;2023-11-19T03:29:53;36.45;;;5.00;;
49828;SDS011;35723;51.194;5.112;2023-11-19T03:32:18;32.53;;;4.72;;
49828;SDS011;35723;51.194;5.112;2023-11-19T03:34:44;32.88;;;5.03;;
49828;SDS011;35723;51.194;5.112;2023-11-19T03:37:10;30.80;;;4.63;;
49828;SDS011;35723;51.194;5.112;2023-11-19T03:39:36;34.00;;;4.78;;
49828;SDS011;35723;51.194;5.112;2023-11-19T03:42:02;44.05;;;5.95;;
49828;SDS011;35723;51.194;5.112;2023-11-19T03:44:28;35.30;;;4.97;;
49828;SDS011;35723;51.194;5.112;2023-11-19T03:46:54;30.52;;;4.63;;
49828;SDS011;35723;51.194;5.112;2023-11-19T03:49:19;42.15;;;5.65;;
49828;SDS011;35723;51.194;5.112;2023-11-19T03:51:45;37.88;;;4.80;;
49828;SDS011;35723;51.194;5.112;2023-11-19T03:54:11;41.33;;;6.00;;
49828;SDS011;35723;51.194;5.112;2023-11-19T03:56:36;36.58;;;5.28;;
49828;SDS011;35723;51.194;5.112;2023-11-19T03:59:02;33.05;;;4.82;;
49828;SDS011;35723;51.194;5.112;2023-11-19T04:01:28;36.22;;;4.65;;
49828;SDS011;35723;51.194;5.112;2023-11-19T04:03:54;39.15;;;4.88;;
49828;SDS011;35723;51.194;5.112;2023-11-19T04:06:21;33.13;;;5.03;;
49828;SDS011;35723;51.194;5.112;2023-11-19T04:08:46;33.13;;;4.88;;
49828;SDS011;35723;51.194;5.112;2023-11-19T04:11:12;39.45;;;4.90;;
49828;SDS011;35723;51.194;5.112;2023-11-19T04:13:38;35.05;;;5.03;;
49828;SDS011;35723;51.194;5.112;2023-11-19T04:16:03;36.15;;;5.20;;
49828;SDS011;35723;51.194;5.112;2023-11-19T04:18:29;39.50;;;5.07;;
49828;SDS011;35723;51.194;5.112;2023-11-19T04:20:57;41.28;;;5.40;;
49828;SDS011;35723;51.194;5.112;2023-11-19T04:23:22;39.88;;;5.95;;
49828;SDS011;35723;51.194;5.112;2023-11-19T04:25:49;32.60;;;5.00;;
49828;SDS011;35723;51.194;5.112;2023-11-19T04:28:15;35.75;;;5.00;;
49828;SDS011;35723;51.194;5.112;2023-11-19T04:30:41;40.15;;;5.57;;
49828;SDS011;35723;51.194;5.112;2023-11-19T04:33:07;37.28;;;5.55;;
49828;SDS011;35723;51.194;5.112;2023-11-19T04:35:32;38.45;;;4.82;;
49828;SDS011;35723;51.194;5.112;2023-11-19T04:37:58;39.35;;;4.70;;
49828;SDS011;35723;51.194;5.112;2023-11-19T04:40:24;42.78;;;5.00;;
49828;SDS011;35723;51.194;5.112;2023-11-19T04:42:50;34.75;;;5.15;;
49828;SDS011;35723;51.194;5.112;2023-11-19T04:45:15;35.08;;;4.50;;
49828;SDS011;35723;51.194;5.112;2023-11-19T04:47:41;33.10;;;4.53;;
49828;SDS011;35723;51.194;5.112;2023-11-19T04:50:08;41.45;;;5.18;;
49828;SDS011;35723;51.194;5.112;2023-11-19T04:52:39;35.28;;;5.03;;
49828;SDS011;35723;51.194;5.112;2023-11-19T04:55:05;36.72;;;4.68;;
49828;SDS011;35723;51.194;5.112;2023-11-19T04:57:31;35.08;;;4.90;;
49828;SDS011;35723;51.194;5.112;2023-11-19T04:59:57;36.13;;;4.70;;
49828;SDS011;35723;51.194;5.112;2023-11-19T05:02:23;42.50;;;5.57;;
49828;SDS011;35723;51.194;5.112;2023-11-19T05:04:49;46.05;;;5.60;;
49828;SDS011;35723;51.194;5.112;2023-11-19T05:07:15;38.67;;;5.28;;
49828;SDS011;35723;51.194;5.112;2023-11-19T05:09:41;40.97;;;5.45;;
49828;SDS011;35723;51.194;5.112;2023-11-19T05:12:08;40.17;;;5.47;;
49828;SDS011;35723;51.194;5.112;2023-11-19T05:14:37;38.08;;;5.03;;
49828;SDS011;35723;51.194;5.112;2023-11-19T05:17:03;36.08;;;4.95;;
49828;SDS011;35723;51.194;5.112;2023-11-19T05:19:28;40.40;;;5.32;;
49828;SDS011;35723;51.194;5.112;2023-11-19T05:21:54;37.65;;;4.85;;
49828;SDS011;35723;51.194;5.112;2023-11-19T05:24:20;37.15;;;5.05;;
49828;SDS011;35723;51.194;5.112;2023-11-19T05:26:45;38.58;;;5.20;;
49828;SDS011;35723;51.194;5.112;2023-11-19T05:29:12;36.17;;;5.75;;
49828;SDS011;35723;51.194;5.112;2023-11-19T05:31:37;38.28;;;5.53;;
49828;SDS011;35723;51.194;5.112;2023-11-19T05:34:03;42.30;;;6.15;;
49828;SDS011;35723;51.194;5.112;2023-11-19T05:36:29;39.13;;;5.65;;
49828;SDS011;35723;51.194;5.112;2023-11-19T05:38:55;40.90;;;6.00;;
49828;SDS011;35723;51.194;5.112;2023-11-19T05:41:21;39.63;;;6.07;;
49828;SDS011;35723;51.194;5.112;2023-11-19T05:43:46;34.63;;;4.78;;
49828;SDS011;35723;51.194;5.112;2023-11-19T05:46:12;39.78;;;5.65;;
49828;SDS011;35723;51.194;5.112;2023-11-19T05:48:38;46.35;;;5.60;;
49828;SDS011;35723;51.194;5.112;2023-11-19T05:51:04;40.40;;;5.25;;
49828;SDS011;35723;51.194;5.112;2023-11-19T05:53:30;36.15;;;5.97;;
49828;SDS011;35723;51.194;5.112;2023-11-19T05:55:56;47.17;;;5.70;;
49828;SDS011;35723;51.194;5.112;2023-11-19T05:58:26;43.13;;;5.18;;
49828;SDS011;35723;51.194;5.112;2023-11-19T06:00:54;42.67;;;5.43;;
49828;SDS011;35723;51.194;5.112;2023-11-19T06:03:20;40.97;;;5.90;;
49828;SDS011;35723;51.194;5.112;2023-11-19T06:05:49;44.42;;;6.05;;
49828;SDS011;35723;51.194;5.112;2023-11-19T06:08:15;39.53;;;5.82;;
49828;SDS011;35723;51.194;5.112;2023-11-19T06:10:42;37.42;;;4.95;;
49828;SDS011;35723;51.194;5.112;2023-11-19T06:13:08;43.60;;;5.65;;
49828;SDS011;35723;51.194;5.112;2023-11-19T06:15:36;39.80;;;5.78;;
49828;SDS011;35723;51.194;5.112;2023-11-19T06:18:02;43.65;;;5.53;;
49828;SDS011;35723;51.194;5.112;2023-11-19T06:20:32;40.58;;;5.22;;
49828;SDS011;35723;51.194;5.112;2023-11-19T06:22:58;38.10;;;5.32;;
49828;SDS011;35723;51.194;5.112;2023-11-19T06:25:24;36.50;;;5.45;;
49828;SDS011;35723;51.194;5.112;2023-11-19T06:27:50;42.97;;;5.60;;
49828;SDS011;35723;51.194;5.112;2023-11-19T06:30:17;41.63;;;5.88;;
49828;SDS011;35723;51.194;5.112;2023-11-19T06:32:43;42.72;;;5.85;;
49828;SDS011;35723;51.194;5.112;2023-11-19T06:35:08;42.15;;;5.28;;
49828;SDS011;35723;51.194;5.112;2023-11-19T06:37:35;44.97;;;6.25;;
49828;SDS011;35723;51.194;5.112;2023-11-19T06:40:03;41.22;;;6.28;;
49828;SDS011;35723;51.194;5.112;2023-11-19T06:42:30;41.85;;;5.68;;
49828;SDS011;35723;51.194;5.112;2023-11-19T06:44:56;38.97;;;6.20;;
49828;SDS011;35723;51.194;5.112;2023-11-19T06:47:25;44.25;;;5.70;;
49828;SDS011;35723;51.194;5.112;2023-11-19T06:49:52;47.03;;;6.00;;
49828;SDS011;35723;51.194;5.112;2023-11-19T06:52:18;37.95;;;5.05;;
49828;SDS011;35723;51.194;5.112;2023-11-19T06:54:44;41.80;;;5.93;;
49828;SDS011;35723;51.194;5.112;2023-11-19T06:57:10;47.80;;;6.13;;
49828;SDS011;35723;51.194;5.112;2023-11-19T06:59:36;43.05;;;6.38;;
49828;SDS011;35723;51.194;5.112;2023-11-19T07:02:02;38.55;;;5.82;;
49828;SDS011;35723;51.194;5.112;2023-11-19T07:04:29;44.60;;;6.05;;
49828;SDS011;35723;51.194;5.112;2023-11-19T07:06:55;46.80;;;5.53;;
49828;SDS011;35723;51.194;5.112;2023-11-19T07:09:21;37.53;;;6.47;;
49828;SDS011;35723;51.194;5.112;2023-11-19T07:11:49;37.72;;;5.93;;
49828;SDS011;35723;51.194;5.112;2023-11-19T07:14:18;45.40;;;5.80;;
49828;SDS011;35723;51.194;5.112;2023-11-19T07:16:44;39.38;;;5.30;;
49828;SDS011;35723;51.194;5.112;2023-11-19T07:19:11;36.58;;;5.45;;
49828;SDS011;35723;51.194;5.112;2023-11-19T07:21:37;41.97;;;5.70;;
49828;SDS011;35723;51.194;5.112;2023-11-19T07:24:09;40.92;;;5.63;;
49828;SDS011;35723;51.194;5.112;2023-11-19T07:26:35;48.70;;;5.90;;
49828;SDS011;35723;51.194;5.112;2023-11-19T07:29:02;44.90;;;6.13;;
49828;SDS011;35723;51.194;5.112;2023-11-19T07:31:28;48.55;;;6.18;;
49828;SDS011;35723;51.194;5.112;2023-11-19T07:33:53;41.00;;;6.18;;
49828;SDS011;35723;51.194;5.112;2023-11-19T07:36:19;45.80;;;5.90;;
49828;SDS011;35723;51.194;5.112;2023-11-19T07:38:45;41.35;;;6.43;;
49828;SDS011;35723;51.194;5.112;2023-11-19T07:41:12;39.53;;;6.05;;
49828;SDS011;35723;51.194;5.112;2023-11-19T07:43:44;40.70;;;6.15;;
49828;SDS011;35723;51.194;5.112;2023-11-19T07:46:11;44.20;;;6.38;;
49828;SDS011;35723;51.194;5.112;2023-11-19T07:48:38;38.53;;;5.97;;
49828;SDS011;35723;51.194;5.112;2023-11-19T07:51:04;37.30;;;5.90;;
49828;SDS011;35723;51.194;5.112;2023-11-19T07:53:30;49.80;;;6.47;;
49828;SDS011;35723;51.194;5.112;2023-11-19T07:55:57;44.75;;;6.38;;
49828;SDS011;35723;51.194;5.112;2023-11-19T07:58:24;41.20;;;6.03;;
49828;SDS011;35723;51.194;5.112;2023-11-19T08:00:50;44.88;;;5.57;;
49828;SDS011;35723;51.194;5.112;2023-11-19T08:03:17;41.15;;;5.85;;
49828;SDS011;35723;51.194;5.112;2023-11-19T08:05:44;45.92;;;6.45;;
49828;SDS011;35723;51.194;5.112;2023-11-19T08:08:10;42.95;;;5.70;;
49828;SDS011;35723;51.194;5.112;2023-11-19T08:10:36;44.47;;;5.60;;
49828;SDS011;35723;51.194;5.112;2023-11-19T08:13:01;47.47;;;6.18;;
49828;SDS011;35723;51.194;5.112;2023-11-19T08:15:27;38.25;;;5.90;;
49828;SDS011;35723;51.194;5.112;2023-11-19T08:17:53;47.25;;;6.07;;
49828;SDS011;35723;51.194;5.112;2023-11-19T08:20:18;38.20;;;5.75;;
49828;SDS011;35723;51.194;5.112;2023-11-19T08:22:44;43.13;;;6.57;;
49828;SDS011;35723;51.194;5.112;2023-11-19T08:25:10;41.38;;;5.80;;
49828;SDS011;35723;51.194;5.112;2023-11-19T08:27:35;47.33;;;6.40;;
49828;SDS011;35723;51.194;5.112;2023-11-19T08:30:01;40.35;;;5.82;;
49828;SDS011;35723;51.194;5.112;2023-11-19T08:32:27;42.58;;;5.78;;
49828;SDS011;35723;51.194;5.112;2023-11-19T08:34:53;41.92;;;6.05;;
49828;SDS011;35723;51.194;5.112;2023-11-19T08:37:18;40.65;;;6.18;;
49828;SDS011;35723;51.194;5.112;2023-11-19T08:39:49;45.55;;;6.40;;
49828;SDS011;35723;51.194;5.112;2023-11-19T08:42:16;53.97;;;6.05;;
49828;SDS011;35723;51.194;5.112;2023-11-19T08:44:42;36.90;;;5.55;;
49828;SDS011;35723;51.194;5.112;2023-11-19T08:47:12;38.90;;;6.15;;
49828;SDS011;35723;51.194;5.112;2023-11-19T08:49:38;38.05;;;5.30;;
49828;SDS011;35723;51.194;5.112;2023-11-19T08:52:04;41.90;;;6.15;;
49828;SDS011;35723;51.194;5.112;2023-11-19T08:54:32;50.28;;;6.78;;
49828;SDS011;35723;51.194;5.112;2023-11-19T08:56:58;44.53;;;6.25;;
49828;SDS011;35723;51.194;5.112;2023-11-19T08:59:24;46.88;;;5.80;;
49828;SDS011;35723;51.194;5.112;2023-11-19T09:01:50;45.10;;;5.97;;
49828;SDS011;35723;51.194;5.112;2023-11-19T09:04:16;41.42;;;6.38;;
49828;SDS011;35723;51.194;5.112;2023-11-19T09:06:42;39.55;;;6.32;;
49828;SDS011;35723;51.194;5.112;2023-11-19T09:09:08;44.70;;;5.93;;
49828;SDS011;35723;51.194;5.112;2023-11-19T09:11:34;41.20;;;5.88;;
49828;SDS011;35723;51.194;5.112;2023-11-19T09:14:00;35.63;;;5.80;;
49828;SDS011;35723;51.194;5.112;2023-11-19T09:16:26;34.72;;;5.45;;
49828;SDS011;35723;51.194;5.112;2023-11-19T09:18:51;42.75;;;5.82;;
49828;SDS011;35723;51.194;5.112;2023-11-19T09:21:17;36.60;;;5.32;;
49828;SDS011;35723;51.194;5.112;2023-11-19T09:23:43;36.83;;;5.60;;
49828;SDS011;35723;51.194;5.112;2023-11-19T09:26:09;39.28;;;5.88;;
49828;SDS011;35723;51.194;5.112;2023-11-19T09:28:35;43.08;;;6.72;;
49828;SDS011;35723;51.194;5.112;2023-11-19T09:31:01;36.63;;;5.20;;
49828;SDS011;35723;51.194;5.112;2023-11-19T09:33:30;38.38;;;5.50;;
49828;SDS011;35723;51.194;5.112;2023-11-19T09:35:56;37.85;;;5.70;;
49828;SDS011;35723;51.194;5.112;2023-11-19T09:38:22;40.85;;;6.82;;
49828;SDS011;35723;51.194;5.112;2023-11-19T09:40:48;43.97;;;5.22;;
49828;SDS011;35723;51.194;5.112;2023-11-19T09:43:15;38.38;;;5.38;;
49828;SDS011;35723;51.194;5.112;2023-11-19T09:45:48;40.83;;;5.32;;
49828;SDS011;35723;51.194;5.112;2023-11-19T09:48:18;39.78;;;5.95;;
49828;SDS011;35723;51.194;5.112;2023-11-19T09:50:45;41.03;;;6.20;;
49828;SDS011;35723;51.194;5.112;2023-11-19T09:53:13;35.65;;;4.63;;
49828;SDS011;35723;51.194;5.112;2023-11-19T09:55:42;40.28;;;5.95;;
49828;SDS011;35723;51.194;5.112;2023-11-19T09:58:08;39.13;;;5.60;;
49828;SDS011;35723;51.194;5.112;2023-11-19T10:00:39;37.20;;;4.93;;
49828;SDS011;35723;51.194;5.112;2023-11-19T10:03:08;33.05;;;4.97;;
49828;SDS011;35723;51.194;5.112;2023-11-19T10:05:37;37.50;;;5.15;;
49828;SDS011;35723;51.194;5.112;2023-11-19T10:08:06;40.30;;;5.07;;
49828;SDS011;35723;51.194;5.112;2023-11-19T10:10:35;35.45;;;5.13;;
49828;SDS011;35723;51.194;5.112;2023-11-19T10:13:01;31.42;;;5.40;;
49828;SDS011;35723;51.194;5.112;2023-11-19T10:15:27;32.08;;;5.00;;
49828;SDS011;35723;51.194;5.112;2023-11-19T10:17:56;32.22;;;5.55;;
49828;SDS011;35723;51.194;5.112;2023-11-19T10:20:25;36.83;;;5.88;;
49828;SDS011;35723;51.194;5.112;2023-11-19T10:22:54;34.55;;;4.95;;
49828;SDS011;35723;51.194;5.112;2023-11-19T10:25:27;31.67;;;4.85;;
49828;SDS011;35723;51.194;5.112;2023-11-19T10:30:23;38.55;;;6.25;;
49828;SDS011;35723;51.194;5.112;2023-11-19T10:35:31;40.30;;;4.85;;
49828;SDS011;35723;51.194;5.112;2023-11-19T10:38:19;40.15;;;5.38;;
49828;SDS011;35723;51.194;5.112;2023-11-19T10:40:43;33.67;;;4.88;;
49828;SDS011;35723;51.194;5.112;2023-11-19T10:43:09;29.88;;;5.10;;
49828;SDS011;35723;51.194;5.112;2023-11-19T10:45:38;35.30;;;4.95;;
49828;SDS011;35723;51.194;5.112;2023-11-19T10:48:05;33.72;;;5.28;;
49828;SDS011;35723;51.194;5.112;2023-11-19T10:50:39;30.88;;;4.53;;
49828;SDS011;35723;51.194;5.112;2023-11-19T10:53:08;28.90;;;4.30;;
49828;SDS011;35723;51.194;5.112;2023-11-19T10:55:37;31.73;;;4.40;;
49828;SDS011;35723;51.194;5.112;2023-11-19T10:58:10;30.52;;;4.00;;
49828;SDS011;35723;51.194;5.112;2023-11-19T11:00:41;31.30;;;4.47;;
49828;SDS011;35723;51.194;5.112;2023-11-19T11:03:23;32.35;;;4.75;;
49828;SDS011;35723;51.194;5.112;2023-11-19T11:05:52;34.22;;;5.28;;
49828;SDS011;35723;51.194;5.112;2023-11-19T11:08:19;32.80;;;4.53;;
49828;SDS011;35723;51.194;5.112;2023-11-19T11:13:11;31.35;;;4.88;;
49828;SDS011;35723;51.194;5.112;2023-11-19T11:15:38;27.63;;;4.40;;
49828;SDS011;35723;51.194;5.112;2023-11-19T11:18:08;30.63;;;4.53;;
49828;SDS011;35723;51.194;5.112;2023-11-19T11:20:34;30.17;;;4.45;;
49828;SDS011;35723;51.194;5.112;2023-11-19T11:29:01;33.20;;;4.93;;
49828;SDS011;35723;51.194;5.112;2023-11-19T11:37:23;31.65;;;4.72;;
49828;SDS011;35723;51.194;5.112;2023-11-19T11:40:00;35.05;;;4.88;;
49828;SDS011;35723;51.194;5.112;2023-11-19T11:42:31;34.13;;;5.15;;
49828;SDS011;35723;51.194;5.112;2023-11-19T11:44:57;28.13;;;5.32;;
49828;SDS011;35723;51.194;5.112;2023-11-19T11:50:19;31.70;;;4.78;;
49828;SDS011;35723;51.194;5.112;2023-11-19T11:56:08;30.58;;;4.75;;
49828;SDS011;35723;51.194;5.112;2023-11-19T11:58:18;30.85;;;5.28;;
49828;SDS011;35723;51.194;5.112;2023-11-19T12:00:44;29.38;;;4.55;;
49828;SDS011;35723;51.194;5.112;2023-11-19T12:03:12;31.60;;;4.85;;
49828;SDS011;35723;51.194;5.112;2023-11-19T12:05:41;39.03;;;5.57;;
49828;SDS011;35723;51.194;5.112;2023-11-19T12:08:09;39.25;;;4.68;;
49828;SDS011;35723;51.194;5.112;2023-11-19T12:10:43;31.95;;;5.18;;
49828;SDS011;35723;51.194;5.112;2023-11-19T12:13:14;30.20;;;4.40;;
49828;SDS011;35723;51.194;5.112;2023-11-19T12:20:51;33.83;;;4.72;;
49828;SDS011;35723;51.194;5.112;2023-11-19T12:23:16;34.05;;;4.78;;
49828;SDS011;35723;51.194;5.112;2023-11-19T12:25:42;31.85;;;4.70;;
49828;SDS011;35723;51.194;5.112;2023-11-19T12:28:13;35.80;;;5.00;;
49828;SDS011;35723;51.194;5.112;2023-11-19T12:30:42;29.40;;;4.82;;
49828;SDS011;35723;51.194;5.112;2023-11-19T12:33:09;26.52;;;4.20;;
49828;SDS011;35723;51.194;5.112;2023-11-19T12:35:41;30.00;;;4.78;;
49828;SDS011;35723;51.194;5.112;2023-11-19T12:38:08;32.03;;;4.93;;
49828;SDS011;35723;51.194;5.112;2023-11-19T12:40:43;32.22;;;5.32;;
49828;SDS011;35723;51.194;5.112;2023-11-19T12:43:08;33.83;;;5.28;;
49828;SDS011;35723;51.194;5.112;2023-11-19T12:45:37;28.02;;;4.47;;
49828;SDS011;35723;51.194;5.112;2023-11-19T12:48:07;33.92;;;4.82;;
49828;SDS011;35723;51.194;5.112;2023-11-19T12:50:55;31.67;;;5.13;;
49828;SDS011;35723;51.194;5.112;2023-11-19T12:53:22;29.23;;;5.15;;
49828;SDS011;35723;51.194;5.112;2023-11-19T12:55:49;33.55;;;4.75;;
49828;SDS011;35723;51.194;5.112;2023-11-19T12:58:32;29.90;;;4.60;;
49828;SDS011;35723;51.194;5.112;2023-11-19T13:01:07;32.53;;;4.57;;
49828;SDS011;35723;51.194;5.112;2023-11-19T13:03:36;31.02;;;4.75;;
49828;SDS011;35723;51.194;5.112;2023-11-19T13:06:10;29.63;;;4.85;;
49828;SDS011;35723;51.194;5.112;2023-11-19T13:08:45;31.75;;;4.57;;
49828;SDS011;35723;51.194;5.112;2023-11-19T13:11:15;32.53;;;5.10;;
49828;SDS011;35723;51.194;5.112;2023-11-19T13:13:55;35.35;;;5.72;;
49828;SDS011;35723;51.194;5.112;2023-11-19T13:16:26;31.55;;;5.28;;
49828;SDS011;35723;51.194;5.112;2023-11-19T13:18:52;30.08;;;5.05;;
49828;SDS011;35723;51.194;5.112;2023-11-19T13:21:19;32.10;;;5.05;;
49828;SDS011;35723;51.194;5.112;2023-11-19T13:23:44;33.55;;;4.78;;
49828;SDS011;35723;51.194;5.112;2023-11-19T13:26:13;35.35;;;5.60;;
49828;SDS011;35723;51.194;5.112;2023-11-19T13:28:39;29.17;;;5.03;;
49828;SDS011;35723;51.194;5.112;2023-11-19T13:31:05;28.88;;;4.72;;
49828;SDS011;35723;51.194;5.112;2023-11-19T13:33:30;28.00;;;4.68;;
49828;SDS011;35723;51.194;5.112;2023-11-19T13:35:56;32.30;;;4.60;;
49828;SDS011;35723;51.194;5.112;2023-11-19T13:38:22;29.13;;;5.00;;
49828;SDS011;35723;51.194;5.112;2023-11-19T13:40:49;29.88;;;5.00;;
49828;SDS011;35723;51.194;5.112;2023-11-19T13:43:14;30.70;;;4.60;;
49828;SDS011;35723;51.194;5.112;2023-11-19T13:45:40;26.13;;;4.57;;
49828;SDS011;35723;51.194;5.112;2023-11-19T13:48:06;31.83;;;5.47;;
49828;SDS011;35723;51.194;5.112;2023-11-19T13:50:31;36.08;;;4.70;;
49828;SDS011;35723;51.194;5.112;2023-11-19T13:52:59;29.40;;;4.82;;
49828;SDS011;35723;51.194;5.112;2023-11-19T13:55:24;33.90;;;5.57;;
49828;SDS011;35723;51.194;5.112;2023-11-19T13:57:50;34.38;;;4.63;;
49828;SDS011;35723;51.194;5.112;2023-11-19T14:00:16;31.13;;;4.57;;
49828;SDS011;35723;51.194;5.112;2023-11-19T14:02:44;32.70;;;4.97;;
49828;SDS011;35723;51.194;5.112;2023-11-19T14:05:11;31.83;;;4.72;;
49828;SDS011;35723;51.194;5.112;2023-11-19T14:07:41;29.45;;;4.90;;
49828;SDS011;35723;51.194;5.112;2023-11-19T14:10:07;33.05;;;5.65;;
49828;SDS011;35723;51.194;5.112;2023-11-19T14:12:41;27.98;;;4.68;;
49828;SDS011;35723;51.194;5.112;2023-11-19T14:15:08;31.13;;;4.70;;
49828;SDS011;35723;51.194;5.112;2023-11-19T14:17:38;27.20;;;4.78;;
49828;SDS011;35723;51.194;5.112;2023-11-19T14:20:05;30.27;;;4.38;;
49828;SDS011;35723;51.194;5.112;2023-11-19T14:22:40;30.58;;;4.88;;
49828;SDS011;35723;51.194;5.112;2023-11-19T14:25:10;30.20;;;4.47;;
49828;SDS011;35723;51.194;5.112;2023-11-19T14:27:39;30.75;;;4.78;;
49828;SDS011;35723;51.194;5.112;2023-11-19T14:30:06;32.85;;;4.55;;
49828;SDS011;35723;51.194;5.112;2023-11-19T14:32:35;32.10;;;4.38;;
49828;SDS011;35723;51.194;5.112;2023-11-19T14:35:01;33.15;;;4.93;;
49828;SDS011;35723;51.194;5.112;2023-11-19T14:37:28;34.47;;;5.20;;
49828;SDS011;35723;51.194;5.112;2023-11-19T14:39:56;36.15;;;5.55;;
49828;SDS011;35723;51.194;5.112;2023-11-19T14:42:22;30.25;;;4.53;;
49828;SDS011;35723;51.194;5.112;2023-11-19T14:44:50;33.17;;;4.70;;
49828;SDS011;35723;51.194;5.112;2023-11-19T14:47:22;30.27;;;4.85;;
49828;SDS011;35723;51.194;5.112;2023-11-19T14:49:48;30.73;;;5.40;;
49828;SDS011;35723;51.194;5.112;2023-11-19T14:52:14;33.42;;;5.38;;
49828;SDS011;35723;51.194;5.112;2023-11-19T14:54:39;30.88;;;4.95;;
49828;SDS011;35723;51.194;5.112;2023-11-19T14:57:05;27.05;;;5.22;;
49828;SDS011;35723;51.194;5.112;2023-11-19T14:59:33;27.55;;;4.32;;
49828;SDS011;35723;51.194;5.112;2023-11-19T15:01:59;36.65;;;5.43;;
49828;SDS011;35723;51.194;5.112;2023-11-19T15:04:26;36.63;;;7.18;;
49828;SDS011;35723;51.194;5.112;2023-11-19T15:06:52;34.22;;;7.50;;
49828;SDS011;35723;51.194;5.112;2023-11-19T15:09:18;36.08;;;7.03;;